Terminal Aerodrome Forecast
Issued by NWS

Home | Current Version | Previous Version | Text Only | Print | Product List | Glossary On
Versions: 1 2 3 4 5 6 7 8 9 10 11 12 13
000
FTUS45 KFGZ 231146
TAFSEZ
TAF
KSEZ 231146Z 2312/2412 04009KT P6SM FEW250
     FM231600 17011G17KT P6SM FEW250
     FM231900 21019G28KT P6SM SCT250
     FM240300 VRB06KT P6SM FEW250=

USA.gov is the U.S. government's official web portal to all federal, state and local government web resources and services.